• Join FlightAware (Why Join?)
  • Login
  • US Flag 
03:44AM EDT


 

Airport Tracker/Info


-or-


 

Live Flight TrackerFlight Track Log ✈ N929SR ✈ 05-May-2013 ✈ KSDL - KTPA

Flight Track Log - Related Links

Times and Time Zones

All times are in EDT time to prevent confusion due to time zone crossing. See the N929SR flight status page for this flight to view local times or setup timezone preferences in your user account.

Time Position Orientation Groundspeed Altitude Reporting Facility
EDT Latitude Longitude Course Direction KTS MPH feet Rate Location/Type
06:00PM 33.6167 -111.9333 295° West 179 206 2,300  Level Phoenix TRACON
06:01PM 33.6394 -111.9933 295° West 235 270 5,200 2,400 Climbing Albuquerque Center
06:02PM 33.6667 -111.9239 65° Northeast 246 283 7,900 2,280 Climbing Albuquerque Center
06:03PM 33.6164 -111.8572 132° Southeast 271 312 10,000 960 Climbing Albuquerque Center
06:04PM 33.5631 -111.8014 139° Southeast 258 297 10,000  Level Albuquerque Center
06:05PM 33.5044 -111.7406 139° Southeast 277 319 10,000 540 Level Albuquerque Center
06:06PM 33.4428 -111.6747 138° Southeast 294 338 11,200 2,880 Climbing Albuquerque Center
06:08PM 33.3167 -111.4896 90° East  Level FlightAware Approximate
06:08PM 33.2919 -111.5058 90° East 343 395 19,000  Level Albuquerque Center
06:09PM 33.2478 -111.3981 116° Southeast 368 423 21,800 2,580 Climbing Albuquerque Center
06:10PM 33.2508 -111.2617 88° East 411 473 24,400 2,400 Climbing Albuquerque Center
06:11PM 33.2519 -111.1208 89° East 426 490 26,800 2,400 Climbing Albuquerque Center
06:12PM 33.2528 -110.9744 90° East 441 507 29,400 2,340 Climbing Albuquerque Center
06:13PM 33.2544 -110.8244 89° East 451 519 31,700 1,980 Climbing Albuquerque Center
06:14PM 33.2564 -110.6528 89° East 470 541 33,500 1,500 Climbing Albuquerque Center
06:15PM 33.2564 -110.4875 90° East 495 570 34,900 1,500 Climbing Albuquerque Center
06:16PM 33.2564 -110.2803 90° East 520 598 36,700 1,740 Climbing Albuquerque Center
06:17PM 33.2569 -110.1050 90° East 529 609 38,500 1,800 Climbing Albuquerque Center
06:18PM 33.2544 -109.9347 91° East 521 600 40,500 1,200 Climbing Albuquerque Center
06:19PM 33.2547 -109.7706 90° East 505 581 41,000 240 Climbing Albuquerque Center
06:20PM 33.2544 -109.6042 90° East 502 578 41,000  Level Albuquerque Center
06:21PM 33.2533 -109.4403 90° East 499 574 41,000  Level Albuquerque Center
06:22PM 33.2519 -109.2400 90° East 501 577 41,000  Level Albuquerque Center
06:23PM 33.2517 -109.0717 90° East 504 580 41,000  Level Albuquerque Center
06:25PM 33.2500 -108.9019 91° East 507 583 41,000  Level Albuquerque Center
06:26PM 33.2483 -108.7336 91° East 505 581 41,000  Level Albuquerque Center
06:27PM 33.2461 -108.5669 91° East 503 579 41,000  Level Albuquerque Center
06:28PM 33.2431 -108.4011 91° East 502 578 41,000  Level Albuquerque Center
06:29PM 33.2406 -108.2375 91° East 498 573 41,000 -60 Level Albuquerque Center
06:30PM 33.2372 -108.0656 91° East 499 574 40,900  Descending Albuquerque Center
06:31PM 33.2336 -107.8989 91° East 501 577 41,000  Climbing Albuquerque Center
06:32PM 33.2303 -107.7322 91° East 501 577 41,000  Level Albuquerque Center
06:33PM 33.2267 -107.5311 91° East 503 579 41,000  Level Albuquerque Center
06:34PM 33.2228 -107.3628 92° East 505 581 41,000  Level Albuquerque Center
06:35PM 33.2194 -107.1947 91° East 505 581 41,000 -60 Level Albuquerque Center
06:36PM 33.2147 -107.0283 92° East 501 577 40,900  Descending Albuquerque Center
06:37PM 33.2103 -106.8614 92° East 502 578 41,000  Climbing Albuquerque Center
06:38PM 33.2061 -106.6936 92° East 502 578 41,000  Level Albuquerque Center
06:39PM 33.2019 -106.5253 92° East 504 580 41,000  Level Albuquerque Center
06:40PM 33.1969 -106.3578 92° East 505 581 41,000  Level Albuquerque Center
06:41PM 33.1914 -106.1908 92° East 505 581 41,000  Level Albuquerque Center
06:42PM 33.1842 -105.9892 92° East 505 581 41,000  Level Albuquerque Center
06:43PM 33.1786 -105.8222 92° East 504 580 41,000  Level Albuquerque Center
06:45PM 33.1603 -105.5849 92° East  Level FlightAware Approximate
06:45PM 33.1650 -105.4697 92° East 502 578 41,000  Level Albuquerque Center
06:46PM 33.1575 -105.3056 93° East 497 572 41,000  Level Albuquerque Center
06:47PM 33.1519 -105.1428 92° East 494 568 41,000  Level Albuquerque Center
06:48PM 33.1456 -104.9681 92° East 492 566 41,000  Level Albuquerque Center
06:49PM 33.1378 -104.8053 93° East 495 570 41,000  Level Albuquerque Center
06:50PM 33.1306 -104.6403 93° East 501 577 41,000  Level Albuquerque Center
06:51PM 33.1236 -104.4633 93° East 503 579 41,000  Level Albuquerque Center
06:52PM 33.1161 -104.2975 93° East 505 581 41,000  Level Albuquerque Center
06:53PM 33.1083 -104.1200 93° East 502 578 41,000  Level Albuquerque Center
06:54PM 33.1011 -103.9547 93° East 502 578 41,000  Level Albuquerque Center
06:55PM 33.0936 -103.7883 93° East 503 579 41,000  Level Albuquerque Center
06:56PM 33.0861 -103.6339 93° East 503 579 41,000  Level Albuquerque Center
06:57PM 33.0761 -103.4675 94° East 502 578 41,000  Level Albuquerque Center
06:58PM 33.0675 -103.3003 93° East 505 581 41,000  Level Albuquerque Center
06:59PM 33.0567 -103.1331 94° East 506 582 41,000  Level Albuquerque Center
07:00PM 33.0461 -102.9328 94° East 504 580 41,000  Level Albuquerque Center
07:02PM 33.0336 -102.7331 94° East 501 577 41,000  Level Fort Worth Center
07:03PM 33.0197 -102.5639 96° East 501 577 41,000  Level Fort Worth Center
07:04PM 33.0086 -102.3750 94° East 505 581 41,000  Level Fort Worth Center
07:05PM 32.9997 -102.2283 94° East 505 581 41,000  Level Fort Worth Center
07:06PM 32.9878 -102.0444 94° East 506 582 41,000  Level Fort Worth Center
07:07PM 32.9772 -101.8756 94° East 508 585 41,000  Level Fort Worth Center
07:08PM 32.9642 -101.7142 95° East 502 578 41,000  Level Fort Worth Center
07:09PM 32.9569 -101.5528 93° East 502 578 41,000  Level Fort Worth Center
07:10PM 32.9456 -101.3864 95° East 497 572 41,000  Level Fort Worth Center
07:11PM 32.9342 -101.2225 95° East 502 578 41,000  Level Fort Worth Center
07:12PM 32.9203 -101.0561 96° East 502 578 41,000  Level Fort Worth Center
07:13PM 32.9083 -100.8900 95° East 502 578 41,000  Level Fort Worth Center
07:14PM 32.8961 -100.7261 95° East 502 578 41,000  Level Fort Worth Center
07:15PM 32.8856 -100.5650 94° East 502 578 41,000  Level Fort Worth Center
07:16PM 32.8728 -100.4014 95° East 497 572 41,000  Level Fort Worth Center
07:17PM 32.8600 -100.2378 95° East 497 572 41,000  Level Fort Worth Center
07:18PM 32.8489 -100.0767 95° East 497 572 41,000  Level Fort Worth Center
07:19PM 32.8336 -99.9106 96° East 502 578 41,000  Level Fort Worth Center
07:20PM 32.8261 -99.7594 93° East 502 578 41,000  Level Fort Worth Center
07:21PM 32.8081 -99.6008 98° East 502 578 41,000  Level Fort Worth Center
07:22PM 32.7919 -99.4372 97° East 497 572 41,000  Level Fort Worth Center
07:23PM 32.7778 -99.2789 96° East 490 564 41,000  Level Fort Worth Center
07:24PM 32.7653 -99.1181 95° East 485 558 41,000  Level Fort Worth Center
07:25PM 32.7508 -98.9547 96° East 485 558 41,000  Level Fort Worth Center
07:26PM 32.7358 -98.7964 96° East 485 558 41,000  Level Fort Worth Center
07:27PM 32.7189 -98.6333 97° East 485 558 41,000  Level Fort Worth Center
07:28PM 32.7078 -98.4750 95° East 485 558 41,000  Level Fort Worth Center
07:29PM 32.6883 -98.3044 98° East 485 558 41,000  Level Fort Worth Center
07:30PM 32.6725 -98.1611 97° East 485 558 41,000  Level Fort Worth Center
07:31PM 32.6567 -97.9858 96° East 480 552 41,000  Level Fort Worth Center
07:32PM 32.6406 -97.8278 97° East 480 552 41,000  Level Fort Worth Center
07:33PM 32.6244 -97.6700 97° East 485 558 41,000  Level Fort Worth Center
07:34PM 32.6078 -97.5097 97° East 485 558 41,000  Level Fort Worth Center
07:35PM 32.5911 -97.3517 97° East 485 558 41,000  Level Fort Worth Center
07:36PM 32.5764 -97.1939 96° East 485 558 41,000  Level Fort Worth Center
07:37PM 32.5594 -97.0364 97° East 485 558 41,000  Level Fort Worth Center
07:38PM 32.5442 -96.8886 97° East 485 558 41,000  Level Fort Worth Center
07:39PM 32.5244 -96.7161 98° East 485 558 41,000  Level Fort Worth Center
07:40PM 32.5111 -96.5708 96° East 485 558 41,000  Level Fort Worth Center
07:41PM 32.4911 -96.3936 98° East 485 558 41,000  Level Fort Worth Center
07:42PM 32.4731 -96.2486 98° East 485 558 41,000  Level Fort Worth Center
07:43PM 32.4547 -96.0717 97° East 490 564 41,000  Level Fort Worth Center
07:44PM 32.4406 -95.9414 97° East 490 564 41,000  Level Fort Worth Center
07:45PM 32.4197 -95.7669 98° East 490 564 41,000  Level Fort Worth Center
07:46PM 32.4028 -95.5975 97° East 495 570 41,000  Level Fort Worth Center
07:47PM 32.3858 -95.4378 97° East 495 570 41,000  Level Fort Worth Center
07:48PM 32.3644 -95.2761 99° East 501 577 41,000  Level Fort Worth Center
07:49PM 32.3447 -95.1142 98° East 501 577 41,000  Level Fort Worth Center
07:50PM 32.3186 -94.9453 100° East 501 577 41,000  Level Fort Worth Center
07:51PM 32.2986 -94.7836 98° East 507 583 41,000  Level Fort Worth Center
07:52PM 32.2783 -94.6194 98° East 507 583 41,000  Level Fort Worth Center
07:53PM 32.2581 -94.4531 98° East 501 577 41,000  Level Fort Worth Center
07:54PM 32.2372 -94.2917 99° East 501 577 41,000  Level Fort Worth Center
07:55PM 32.2186 -94.1278 98° East 501 577 41,000  Level Fort Worth Center
07:56PM 32.1975 -93.9667 99° East 501 577 41,000  Level Fort Worth Center
07:57PM 32.1647 -93.7042 98° East 495 570 41,000  Level Houston Center
07:58PM 32.1403 -93.5261 99° East 499 574 41,000  Level Houston Center
07:59PM 32.1192 -93.3664 99° East 496 571 41,000  Level Houston Center
08:00PM 32.0969 -93.2047 99° East 497 572 41,000  Level Houston Center
08:02PM 32.0747 -93.0464 99° East 492 566 41,000  Level Houston Center
08:03PM 32.0550 -92.9022 99° East 492 566 41,000  Level Houston Center
08:04PM 32.0278 -92.7133 100° East 489 563 41,000  Level Houston Center
08:05PM 32.0058 -92.5528 99° East 492 566 41,000  Level Houston Center
08:06PM 31.9825 -92.3944 100° East 493 567 41,000  Level Houston Center
08:07PM 31.9600 -92.2336 99° East 495 570 41,000  Level Houston Center
08:08PM 31.9364 -92.0739 100° East 496 571 41,000  Level Houston Center
08:09PM 31.9083 -91.8919 100° East 501 577 41,000  Level Houston Center
08:10PM 31.8844 -91.7317 100° East 498 573 41,000  Level Houston Center
08:11PM 31.8556 -91.5381 100° East 500 575 41,000  Level Houston Center
08:12PM 31.8306 -91.3764 100° East 502 578 41,000  Level Houston Center
08:13PM 31.8058 -91.2142 100° East 502 578 41,000  Level Houston Center
08:14PM 31.7800 -91.0486 100° East 505 581 41,000  Level Houston Center
08:15PM 31.7494 -90.8539 100° East 504 580 41,000  Level Houston Center
08:16PM 31.7231 -90.6919 101° East 504 580 41,000  Level Houston Center
08:17PM 31.6975 -90.5292 100° East 508 585 41,000  Level Houston Center
08:18PM 31.6719 -90.3631 100° East 515 593 41,000  Level Houston Center
08:19PM 31.6442 -90.1983 101° East 515 593 41,000  Level Houston Center
08:20PM 31.6178 -90.0328 101° East 515 593 41,000  Level Houston Center
08:21PM 31.5906 -89.8689 101° East 512 589 41,000  Level Houston Center
08:22PM 31.5578 -89.6739 101° East 508 585 41,000  Level Houston Center
08:23PM 31.5350 -89.5328 101° East 507 583 41,000  Level Houston Center
08:24PM 31.5075 -89.3725 101° East 505 581 41,000  Level Houston Center
08:25PM 31.4750 -89.1806 101° East 502 578 41,000  Level Houston Center
08:26PM 31.4478 -89.0186 101° East 504 580 41,000  Level Houston Center
08:28PM 31.4186 -88.8567 102° East 512 589 41,000  Level Houston Center
08:29PM 31.3914 -88.6953 101° East 507 583 41,000  Level Houston Center
08:30PM 31.3636 -88.5358 101° East 501 577 41,000  Level Houston Center
08:31PM 31.3350 -88.3761 102° East 500 575 41,000  Level Houston Center
08:32PM 31.3078 -88.2150 101° East 501 577 41,000  Level Houston Center
08:33PM 31.2792 -88.0531 102° East 502 578 41,000  Level Houston Center
08:34PM 31.2433 -87.8617 102° East 500 575 41,000  Level Houston Center
08:35PM 31.2169 -87.7175 102° East 504 580 41,000  Level Houston Center
08:36PM 31.1833 -87.5392 102° East 507 583 41,000  Level Houston Center
08:37PM 31.1533 -87.3772 102° East 510 587 41,000  Level Houston Center
08:37PM 31.1369 -87.2733 100° East 492 566 41,000  Level Jacksonville Center
08:38PM 31.0792 -87.1250 114° Southeast 492 566 41,000  Level Jacksonville Center
08:39PM 30.9978 -86.9978 127° Southeast 482 555 41,000  Level Jacksonville Center
08:40PM 30.9203 -86.8733 126° Southeast 482 555 41,000  Level Jacksonville Center
08:41PM 30.8408 -86.7442 126° Southeast 488 562 41,000  Level Jacksonville Center
08:42PM 30.7592 -86.6153 126° Southeast 493 567 41,000  Level Jacksonville Center
08:43PM 30.6792 -86.4914 127° Southeast 493 567 41,000  Level Jacksonville Center
08:44PM 30.6014 -86.3631 125° Southeast 488 562 41,000  Level Jacksonville Center
08:45PM 30.5211 -86.2347 126° Southeast 488 562 41,000  Level Jacksonville Center
08:46PM 30.4411 -86.1089 126° Southeast 488 562 41,000  Level Jacksonville Center
08:47PM 30.3628 -85.9811 125° Southeast 488 562 41,000  Level Jacksonville Center
08:48PM 30.2842 -85.8561 126° Southeast 488 562 41,000  Level Jacksonville Center
08:49PM 30.2056 -85.7311 126° Southeast 488 562 41,000  Level Jacksonville Center
08:50PM 30.1206 -85.6158 130° Southeast 488 562 41,000  Level Jacksonville Center
08:51PM 30.0439 -85.4864 124° Southeast 488 562 41,000  Level Jacksonville Center
08:52PM 29.9753 -85.3694 124° Southeast 495 570 41,000  Level Jacksonville Center
08:53PM 29.8942 -85.2453 127° Southeast 488 562 41,000  Level Jacksonville Center
08:54PM 29.8150 -85.1211 126° Southeast 483 556 41,000  Level Jacksonville Center
08:55PM 29.7356 -84.9975 126° Southeast 483 556 41,000 -600 Level Jacksonville Center
08:56PM 29.6542 -84.8714 127° Southeast 483 556 39,900 -1,620 Descending Jacksonville Center
08:57PM 29.5725 -84.7456 127° Southeast 483 556 37,800 -2,160 Descending Jacksonville Center
08:58PM 29.4928 -84.6225 127° Southeast 483 556 35,600 -2,160 Descending Jacksonville Center
08:59PM 29.4150 -84.5017 126° Southeast 483 556 33,500 -2,040 Descending Jacksonville Center
09:00PM 29.3372 -84.3861 128° Southeast 477 549 31,600 -2,100 Descending Jacksonville Center
09:01PM 29.2569 -84.2658 127° Southeast 477 549 29,400 -2,220 Descending Jacksonville Center
09:02PM 29.1747 -84.1411 127° Southeast 477 549 27,200 -2,100 Descending Jacksonville Center
09:03PM 29.0944 -84.0214 127° Southeast 477 549 25,200 -1,140 Descending Jacksonville Center
09:04PM 29.0142 -83.8994 127° Southeast 477 549 25,000 -120 Descending Jacksonville Center
09:05PM 28.9358 -83.7775 126° Southeast 477 549 25,000 -660 Level Jacksonville Center
09:06PM 28.8550 -83.6583 128° Southeast 477 549 23,700 -1,680 Descending Jacksonville Center
09:07PM 28.7764 -83.5369 126° Southeast 477 549 21,700 -1,920 Descending Jacksonville Center
09:08PM 28.6978 -83.4203 128° Southeast 477 549 19,900 -1,920 Descending Jacksonville Center
09:10PM 28.5333 -83.1667 126° Southeast 431 496 15,700 -1,920 Descending Tampa TRACON
09:11PM 28.4833 -83.1167 139° Southeast 423 487 14,700 -1,560 Descending Tampa TRACON
09:12PM 28.4167 -83.0000 123° Southeast 402 463 13,100 -1,680 Descending Tampa TRACON
09:13PM 28.3333 -82.9500 152° Southeast 339 390 11,400 -1,740 Descending Tampa TRACON
09:14PM 28.2500 -82.9000 152° Southeast 308 354 9,700 -1,620 Descending Tampa TRACON
09:15PM 28.1833 -82.8500 147° Southeast 293 337 8,000 -1,380 Descending Tampa TRACON
09:16PM 28.1167 -82.8000 147° Southeast 295 339 7,000 -540 Descending Tampa TRACON
09:17PM 28.0500 -82.7500 146° Southeast 290 334 7,000 -540 Level Tampa TRACON
09:18PM 27.9833 -82.7167 156° South 279 321 6,000 -1,320 Descending Tampa TRACON
09:19PM 27.9167 -82.6667 146° Southeast 266 306 4,400 -1,560 Descending Tampa TRACON
09:20PM 27.8667 -82.6167 139° Southeast 272 313 2,900 -1,020 Descending Tampa TRACON
09:21PM 27.8667 -82.5500 90° East 228 262 2,500 -900 Descending Tampa TRACON
09:22PM 27.9000 -82.5333 24° Northeast 160 184 1,300 -1,020 Descending Tampa TRACON
09:23PM 27.9500 -82.5333 360° North 153 176 500 -840 Descending Tampa TRACON
09:25PM 27.9667 -82.5167 161° South  Level FlightAware Approximate
09:32PM 27.9755 -82.5332 161° South  Level Estimated
09:33PM 27.9755 -82.5332 161° South  Level Estimated